Time;durP1;ratioP1;P1;durP2;ratioP2;P2;SDS_P1;SDS_P2;PMS_P1;PMS_P2;Temp;Humidity;BMP_temperature;BMP_pressure;BME280_temperature;BME280_humidity;BME280_pressure;Samples;Min_cycle;Max_cycle;Signal;HPM_P1;HPM_P2
2024/01/18 00:00:25;;;;;;;2.33;1.67;;;15.00;62.70;;;;;;4206628;28;20097;-45
2024/01/18 00:03:08;;;;;;;2.50;1.58;;;15.00;62.50;;;;;;4204746;28;20055;-46
2024/01/18 00:05:49;;;;;;;4.35;1.63;;;15.00;62.40;;;;;;4226606;27;20085;-44
2024/01/18 00:08:30;;;;;;;3.80;1.60;;;15.00;62.40;;;;;;4240176;27;20054;-43
2024/01/18 00:11:11;;;;;;;1.50;0.70;;;15.00;62.40;;;;;;4227294;27;20088;-43
2024/01/18 00:13:52;;;;;;;1.98;0.70;;;15.00;62.50;;;;;;4220565;27;20139;-44
2024/01/18 00:16:34;;;;;;;0.80;0.65;;;14.90;62.80;;;;;;4222476;27;20119;-46
2024/01/18 00:19:17;;;;;;;0.88;0.55;;;14.90;62.90;;;;;;4222863;27;20055;-44
2024/01/18 00:21:58;;;;;;;0.73;0.73;;;15.00;63.00;;;;;;4222077;27;20497;-44
2024/01/18 00:24:39;;;;;;;1.45;0.60;;;15.00;62.90;;;;;;4206181;28;20055;-45
2024/01/18 00:27:20;;;;;;;0.60;0.43;;;15.00;63.00;;;;;;4206185;28;20501;-46
2024/01/18 00:30:01;;;;;;;0.98;0.50;;;15.20;63.20;;;;;;4206389;28;20138;-44
2024/01/18 00:32:42;;;;;;;0.55;0.40;;;15.30;62.40;;;;;;4205442;28;20055;-45
2024/01/18 00:35:24;;;;;;;0.75;0.75;;;15.40;62.10;;;;;;4205772;28;20129;-45
2024/01/18 00:38:05;;;;;;;1.23;0.60;;;15.40;61.80;;;;;;4205845;28;20448;-44
2024/01/18 00:40:46;;;;;;;1.92;0.60;;;15.50;61.60;;;;;;4187680;28;20124;-44
2024/01/18 00:43:27;;;;;;;1.30;0.50;;;15.50;61.50;;;;;;4206033;28;20058;-45
2024/01/18 00:46:08;;;;;;;0.43;0.43;;;15.50;61.40;;;;;;4205132;27;20090;-44
2024/01/18 00:48:49;;;;;;;0.65;0.50;;;15.40;61.40;;;;;;4203250;28;20112;-42
2024/01/18 00:51:31;;;;;;;1.05;0.52;;;15.40;61.70;;;;;;4204003;27;20051;-42
2024/01/18 00:54:13;;;;;;;0.90;0.50;;;15.30;62.20;;;;;;4207786;27;20042;-43
2024/01/18 00:56:54;;;;;;;0.95;0.73;;;15.40;62.00;;;;;;4219863;27;20046;-47
2024/01/18 00:59:35;;;;;;;0.73;0.50;;;15.40;61.80;;;;;;4221579;27;20090;-45
2024/01/18 01:02:16;;;;;;;0.35;0.35;;;15.40;62.00;;;;;;4221249;27;20070;-44
2024/01/18 01:04:57;;;;;;;0.30;0.30;;;15.50;61.70;;;;;;4210848;27;20621;-46
2024/01/18 01:07:39;;;;;;;0.77;0.77;;;15.50;61.70;;;;;;4205082;28;20178;-45
2024/01/18 01:10:20;;;;;;;0.47;0.40;;;15.50;62.40;;;;;;4215441;27;20051;-46
2024/01/18 01:13:01;;;;;;;1.90;0.60;;;15.50;61.60;;;;;;4221092;27;20051;-45
2024/01/18 01:15:42;;;;;;;0.50;0.40;;;15.50;61.90;;;;;;4204904;27;20137;-45
2024/01/18 01:18:23;;;;;;;1.98;0.75;;;15.50;61.60;;;;;;4204020;28;20181;-45
2024/01/18 01:21:05;;;;;;;0.98;0.50;;;15.60;61.60;;;;;;4204739;28;20051;-51
2024/01/18 01:23:48;;;;;;;3.20;0.30;;;15.60;61.60;;;;;;4204296;28;20047;-42
2024/01/18 01:26:30;;;;;;;0.32;0.30;;;15.60;61.40;;;;;;4199803;28;20406;-44
2024/01/18 01:29:11;;;;;;;0.90;0.20;;;15.70;62.00;;;;;;4197514;28;20245;-44
2024/01/18 01:31:52;;;;;;;2.10;0.70;;;15.70;60.90;;;;;;4203160;28;20125;-45
2024/01/18 01:34:33;;;;;;;1.73;0.70;;;15.70;60.90;;;;;;4220938;27;20710;-42
2024/01/18 01:37:14;;;;;;;0.70;0.70;;;15.80;60.80;;;;;;4204406;28;20055;-45
2024/01/18 01:39:57;;;;;;;0.88;0.80;;;15.70;60.80;;;;;;4202919;28;20043;-43
2024/01/18 01:42:38;;;;;;;2.10;0.90;;;15.70;61.00;;;;;;4204262;28;20059;-42
2024/01/18 01:45:19;;;;;;;1.30;1.15;;;15.70;60.90;;;;;;4216106;27;20703;-42
2024/01/18 01:48:00;;;;;;;3.30;1.27;;;15.70;60.90;;;;;;4176308;27;1183271;-45
2024/01/18 01:50:41;;;;;;;;;;;15.70;61.00;;;;;;4205350;28;20616;-43
2024/01/18 01:53:23;;;;;;;3.70;1.55;;;15.60;61.10;;;;;;4203990;28;20024;-42
2024/01/18 01:56:05;;;;;;;5.07;1.70;;;15.60;61.50;;;;;;4211768;27;20512;-42
2024/01/18 01:58:47;;;;;;;2.08;1.88;;;15.70;61.30;;;;;;4221646;27;20050;-43
2024/01/18 02:01:28;;;;;;;2.20;2.00;;;15.70;61.00;;;;;;4221772;27;20604;-44
2024/01/18 02:04:09;;;;;;;3.70;2.03;;;15.70;60.90;;;;;;4218250;27;20071;-42
2024/01/18 02:06:52;;;;;;;3.15;2.00;;;15.70;60.90;;;;;;4204338;28;20047;-45
2024/01/18 02:09:33;;;;;;;1.55;1.45;;;15.60;60.90;;;;;;4204702;27;20071;-43
2024/01/18 02:12:16;;;;;;;;;;;15.50;60.90;;;;;;4204897;27;20502;-43
2024/01/18 02:14:57;;;;;;;;;;;15.40;61.60;;;;;;4219791;27;19927;-43
2024/01/18 02:17:38;;;;;;;1.63;1.45;;;15.50;62.00;;;;;;4221593;27;20332;-43
2024/01/18 02:20:19;;;;;;;1.60;1.50;;;15.60;61.80;;;;;;4218969;27;20058;-45
2024/01/18 02:23:02;;;;;;;3.00;1.48;;;15.70;61.40;;;;;;4221165;27;20770;-44
2024/01/18 02:25:44;;;;;;;2.15;1.27;;;15.90;61.10;;;;;;4197921;27;20051;-43
2024/01/18 02:28:25;;;;;;;3.80;1.40;;;16.00;60.40;;;;;;4213851;27;20058;-43
2024/01/18 02:31:07;;;;;;;2.35;1.20;;;16.10;60.00;;;;;;4221258;27;20112;-44
2024/01/18 02:33:48;;;;;;;2.05;1.20;;;16.10;59.80;;;;;;4219982;27;20047;-45
2024/01/18 02:36:29;;;;;;;3.75;1.20;;;16.30;59.60;;;;;;4221154;27;20173;-43
2024/01/18 02:39:10;;;;;;;3.10;1.55;;;16.30;59.40;;;;;;4221434;27;20506;-44
2024/01/18 02:41:54;;;;;;;4.22;1.58;;;16.40;59.30;;;;;;4220750;27;20399;-43
2024/01/18 02:44:37;;;;;;;2.20;1.05;;;16.40;59.10;;;;;;4211594;28;20059;-43
2024/01/18 02:47:18;;;;;;;1.50;1.00;;;16.40;59.10;;;;;;4203192;28;20055;-44
2024/01/18 02:49:59;;;;;;;1.80;0.98;;;16.30;59.10;;;;;;4203102;28;20055;-44
2024/01/18 02:52:40;;;;;;;3.78;1.30;;;16.30;59.40;;;;;;4204180;28;20101;-44
2024/01/18 02:55:21;;;;;;;1.75;1.15;;;16.20;60.30;;;;;;4214335;27;20497;-43
2024/01/18 02:58:04;;;;;;;2.42;1.23;;;16.30;59.50;;;;;;4219879;27;20066;-43
2024/01/18 03:00:45;;;;;;;1.63;1.05;;;16.40;59.30;;;;;;4220529;27;20054;-43
2024/01/18 03:03:26;;;;;;;2.58;1.20;;;16.50;59.00;;;;;;4220479;27;20054;-42
2024/01/18 03:06:07;;;;;;;1.85;1.27;;;16.50;58.80;;;;;;4203465;27;20062;-43
2024/01/18 03:08:48;;;;;;;1.40;1.25;;;16.50;58.80;;;;;;4203907;28;20047;-43
2024/01/18 03:11:29;;;;;;;2.40;1.20;;;16.60;58.70;;;;;;4203724;28;20104;-44
2024/01/18 03:14:13;;;;;;;1.20;1.08;;;16.60;58.60;;;;;;4202524;27;20050;-44
2024/01/18 03:16:54;;;;;;;3.42;1.10;;;16.60;58.60;;;;;;4203342;27;20178;-44
2024/01/18 03:19:35;;;;;;;1.40;1.30;;;16.60;58.70;;;;;;4220009;27;20176;-43
2024/01/18 03:22:15;;;;;;;2.88;1.38;;;16.60;58.70;;;;;;4219774;27;20051;-43
2024/01/18 03:24:57;;;;;;;1.65;1.00;;;16.60;59.30;;;;;;4215421;27;20034;-43
2024/01/18 03:27:38;;;;;;;2.35;1.08;;;16.70;58.40;;;;;;4219206;27;20059;-43
2024/01/18 03:30:21;;;;;;;1.83;1.00;;;16.70;58.40;;;;;;4220010;27;20124;-44
2024/01/18 03:33:02;;;;;;;1.88;1.30;;;16.70;58.50;;;;;;4220210;27;20192;-44
2024/01/18 03:35:43;;;;;;;1.70;1.25;;;16.60;58.40;;;;;;4203528;28;20050;-43
2024/01/18 03:38:24;;;;;;;1.10;1.00;;;16.60;58.60;;;;;;4186685;28;20060;-45
2024/01/18 03:41:05;;;;;;;1.80;0.73;;;16.50;58.70;;;;;;4203480;28;20559;-47
2024/01/18 03:43:46;;;;;;;;;;;16.30;58.90;;;;;;4203668;28;20379;-43
2024/01/18 03:46:29;;;;;;;1.05;0.85;;;16.20;59.10;;;;;;4203267;28;19927;-43
2024/01/18 03:49:09;;;;;;;2.92;0.80;;;16.10;59.60;;;;;;4203014;28;20104;-43
2024/01/18 03:51:51;;;;;;;2.30;1.10;;;16.10;59.90;;;;;;4185571;28;20060;-43
2024/01/18 03:54:31;;;;;;;2.58;1.00;;;16.10;59.90;;;;;;4185549;28;20076;-43
2024/01/18 03:57:13;;;;;;;1.45;0.80;;;16.10;59.80;;;;;;4186273;28;20507;-44
2024/01/18 03:59:55;;;;;;;1.70;0.93;;;16.20;59.60;;;;;;4185704;28;20438;-43
2024/01/18 04:02:37;;;;;;;2.05;0.90;;;16.20;59.50;;;;;;4186410;28;20822;-43
2024/01/18 04:05:18;;;;;;;1.92;0.85;;;16.20;59.40;;;;;;4185987;28;20056;-42
2024/01/18 04:08:00;;;;;;;2.38;0.68;;;16.20;59.40;;;;;;4186138;28;20067;-42
2024/01/18 04:10:41;;;;;;;4.55;0.80;;;16.20;59.60;;;;;;4203241;28;20058;-42
2024/01/18 04:13:22;;;;;;;0.88;0.70;;;16.20;59.60;;;;;;4193288;27;20054;-42
2024/01/18 04:16:04;;;;;;;1.40;0.73;;;16.20;59.40;;;;;;4186289;28;20051;-43
2024/01/18 04:18:47;;;;;;;1.20;0.60;;;16.30;59.40;;;;;;4203135;28;20075;-42
2024/01/18 04:21:28;;;;;;;0.77;0.50;;;16.30;59.40;;;;;;4203525;28;20122;-42
2024/01/18 04:24:11;;;;;;;0.75;0.52;;;16.40;59.40;;;;;;4212290;28;20108;-42
2024/01/18 04:26:52;;;;;;;1.50;0.73;;;16.40;59.10;;;;;;4205338;28;20132;-42
2024/01/18 04:29:33;;;;;;;1.17;0.70;;;16.50;58.90;;;;;;4206512;28;20063;-42
2024/01/18 04:32:14;;;;;;;4.57;1.45;;;16.70;58.60;;;;;;4205175;28;20055;-44
2024/01/18 04:34:56;;;;;;;1.75;0.60;;;16.70;58.30;;;;;;4218510;27;20058;-41
2024/01/18 04:37:37;;;;;;;1.67;0.68;;;16.80;58.30;;;;;;4222464;27;20107;-42
2024/01/18 04:40:18;;;;;;;0.65;0.40;;;16.80;58.10;;;;;;4223064;27;20055;-42
2024/01/18 04:42:59;;;;;;;1.43;0.53;;;16.90;58.10;;;;;;4221821;27;20058;-42
2024/01/18 04:45:40;;;;;;;4.28;0.60;;;16.90;57.90;;;;;;4221226;27;20438;-43
2024/01/18 04:48:22;;;;;;;4.90;0.77;;;16.90;58.00;;;;;;4221402;27;20055;-42
2024/01/18 04:51:05;;;;;;;2.42;0.52;;;16.90;57.90;;;;;;4222512;27;20121;-43
2024/01/18 04:53:46;;;;;;;1.55;0.50;;;16.80;57.80;;;;;;4215983;28;20140;-43
2024/01/18 04:56:28;;;;;;;3.13;2.20;;;16.80;57.90;;;;;;4204966;28;20047;-43
2024/01/18 04:59:10;;;;;;;1.90;1.20;;;16.70;58.00;;;;;;4189584;27;20167;-43
2024/01/18 05:01:51;;;;;;;;;;;16.60;58.10;;;;;;4189236;28;20063;-42
2024/01/18 05:04:32;;;;;;;3.72;1.45;;;16.40;58.40;;;;;;4187466;28;19930;-42
2024/01/18 05:07:14;;;;;;;3.45;1.30;;;16.30;59.00;;;;;;4205629;27;20748;-42
2024/01/18 05:09:57;;;;;;;3.08;1.33;;;16.30;59.20;;;;;;4204664;27;20185;-43
2024/01/18 05:12:39;;;;;;;2.72;1.33;;;16.30;59.20;;;;;;4211920;27;20078;-42
2024/01/18 05:15:20;;;;;;;1.30;1.20;;;16.40;59.10;;;;;;4205117;28;20050;-42
2024/01/18 05:18:02;;;;;;;2.38;1.60;;;16.50;58.80;;;;;;4205237;28;20055;-41
2024/01/18 05:20:43;;;;;;;3.95;1.40;;;16.50;58.70;;;;;;4204456;28;20059;-50
2024/01/18 05:23:25;;;;;;;3.60;1.65;;;16.70;58.50;;;;;;4206399;28;20070;-42
2024/01/18 05:26:07;;;;;;;3.50;1.25;;;16.70;58.30;;;;;;4204816;28;20557;-42
2024/01/18 05:28:49;;;;;;;2.40;1.48;;;16.70;58.30;;;;;;4204440;28;20047;-43
2024/01/18 05:31:30;;;;;;;1.52;1.27;;;16.70;58.20;;;;;;4205195;28;20096;-42
2024/01/18 05:34:11;;;;;;;3.33;1.55;;;16.80;58.10;;;;;;4204471;28;20055;-43
2024/01/18 05:36:52;;;;;;;2.85;1.17;;;16.80;58.00;;;;;;4205070;28;20054;-42
2024/01/18 05:39:34;;;;;;;1.38;0.88;;;16.80;57.90;;;;;;4204718;28;20063;-42
2024/01/18 05:42:16;;;;;;;2.95;1.13;;;16.90;57.80;;;;;;4223735;27;20050;-42
2024/01/18 05:44:58;;;;;;;2.58;1.02;;;17.00;57.70;;;;;;4203768;28;20051;-42
2024/01/18 05:47:40;;;;;;;1.55;0.90;;;17.00;57.50;;;;;;4203987;28;20055;-42
2024/01/18 05:50:21;;;;;;;1.38;0.60;;;17.10;57.40;;;;;;4203479;28;20426;-42
2024/01/18 05:53:02;;;;;;;1.55;0.70;;;17.00;57.50;;;;;;4203814;28;20059;-42
2024/01/18 05:55:45;;;;;;;;;;;17.00;57.50;;;;;;4200711;27;20051;-42
2024/01/18 05:58:26;;;;;;;2.88;1.30;;;17.00;57.60;;;;;;4192250;27;19926;-41
2024/01/18 06:01:07;;;;;;;;;;;17.00;57.60;;;;;;4201533;28;20047;-42
2024/01/18 06:03:48;;;;;;;2.70;0.90;;;16.90;57.80;;;;;;4204294;28;19969;-41
2024/01/18 06:06:32;;;;;;;1.48;1.13;;;16.90;57.80;;;;;;4204724;28;20126;-41
2024/01/18 06:09:14;;;;;;;0.98;0.60;;;17.00;57.70;;;;;;4219761;27;20104;-41
2024/01/18 06:11:57;;;;;;;1.33;0.57;;;17.00;57.60;;;;;;4216828;27;20046;-43
2024/01/18 06:14:38;;;;;;;1.52;0.43;;;17.00;57.60;;;;;;4201325;28;20415;-41
2024/01/18 06:17:19;;;;;;;0.52;0.52;;;17.00;57.70;;;;;;4202448;28;20082;-42
2024/01/18 06:20:01;;;;;;;1.75;0.60;;;17.00;57.70;;;;;;4203751;28;20129;-42
2024/01/18 06:22:42;;;;;;;0.90;0.70;;;17.00;57.60;;;;;;4202361;28;20100;-41
2024/01/18 06:25:23;;;;;;;;;;;17.00;57.40;;;;;;4217314;27;20058;-41
2024/01/18 06:28:07;;;;;;;1.25;0.90;;;17.00;58.30;;;;;;4208362;27;19934;-42
2024/01/18 06:30:48;;;;;;;1.80;0.98;;;17.00;57.70;;;;;;4218974;27;20059;-41
2024/01/18 06:33:29;;;;;;;1.30;0.90;;;17.00;57.70;;;;;;4204689;27;20046;-42
2024/01/18 06:36:11;;;;;;;1.33;0.70;;;17.00;57.70;;;;;;4220848;27;20159;-41
2024/01/18 06:38:52;;;;;;;1.70;0.52;;;17.00;57.60;;;;;;4211358;27;20054;-42
2024/01/18 06:41:33;;;;;;;1.17;0.60;;;17.00;57.20;;;;;;4218303;27;20054;-41
2024/01/18 06:44:16;;;;;;;2.30;0.70;;;16.90;57.50;;;;;;4201455;28;20058;-42
2024/01/18 06:46:57;;;;;;;0.73;0.52;;;16.90;57.60;;;;;;4202465;28;20506;-41
2024/01/18 06:49:39;;;;;;;2.00;1.10;;;17.00;57.60;;;;;;4203715;28;20074;-41
2024/01/18 06:52:20;;;;;;;3.00;0.80;;;17.00;57.60;;;;;;4207971;27;20196;-41
2024/01/18 06:55:01;;;;;;;1.00;0.90;;;16.90;57.70;;;;;;4202011;28;20055;-42
2024/01/18 06:57:46;;;;;;;;;;;16.90;57.70;;;;;;4202721;28;20160;-47
2024/01/18 07:00:28;;;;;;;2.67;0.82;;;16.90;58.10;;;;;;4202722;28;19931;-41
2024/01/18 07:03:09;;;;;;;2.17;2.03;;;16.90;58.40;;;;;;4203634;28;20466;-43
2024/01/18 07:05:51;;;;;;;2.20;1.27;;;16.90;58.30;;;;;;4206411;27;20051;-46
2024/01/18 07:08:32;;;;;;;2.17;1.38;;;16.90;58.20;;;;;;4219359;27;20399;-42
2024/01/18 07:11:12;;;;;;;1.17;1.00;;;16.80;58.20;;;;;;4206342;28;20536;-42
2024/01/18 07:13:53;;;;;;;2.13;0.90;;;16.70;58.60;;;;;;4225105;27;20059;-42
2024/01/18 07:16:36;;;;;;;1.02;0.95;;;16.60;58.60;;;;;;4229861;27;20454;-43
2024/01/18 07:19:17;;;;;;;1.90;0.93;;;16.70;59.00;;;;;;4236541;27;20566;-47
2024/01/18 07:21:57;;;;;;;1.58;1.00;;;16.60;59.10;;;;;;4228425;27;20066;-45
2024/01/18 07:24:39;;;;;;;1.40;1.02;;;16.70;59.10;;;;;;4201812;28;20051;-44
2024/01/18 07:27:20;;;;;;;3.45;1.00;;;16.70;59.00;;;;;;4184345;28;20051;-43
2024/01/18 07:30:01;;;;;;;;;;;16.70;58.80;;;;;;4191489;27;20060;-44
2024/01/18 07:32:45;;;;;;;3.67;1.13;;;16.80;58.70;;;;;;4191595;27;19927;-43
2024/01/18 07:35:26;;;;;;;1.67;1.00;;;16.80;58.50;;;;;;4186369;28;20186;-44
2024/01/18 07:38:07;;;;;;;1.27;1.00;;;16.90;58.70;;;;;;4211044;27;20074;-45
2024/01/18 07:40:49;;;;;;;2.55;1.23;;;16.90;58.60;;;;;;4200784;27;20054;-46
2024/01/18 07:43:30;;;;;;;1.60;0.57;;;17.00;58.40;;;;;;4218750;27;20054;-46
2024/01/18 07:46:11;;;;;;;2.65;1.02;;;17.00;58.20;;;;;;4219262;27;20062;-44
2024/01/18 07:48:53;;;;;;;1.75;0.73;;;17.10;58.00;;;;;;4200675;27;20548;-45
2024/01/18 07:51:35;;;;;;;2.00;0.60;;;17.10;57.80;;;;;;4210260;27;20096;-42
2024/01/18 07:54:16;;;;;;;0.63;0.60;;;17.10;57.80;;;;;;4216869;27;20055;-42
2024/01/18 07:56:57;;;;;;;2.38;0.95;;;17.10;57.90;;;;;;4203466;28;20055;-42
2024/01/18 07:59:38;;;;;;;1.08;0.85;;;17.10;58.60;;;;;;4201593;27;20117;-47
2024/01/18 08:02:20;;;;;;;0.70;0.70;;;17.20;57.80;;;;;;4205930;27;20046;-42
2024/01/18 08:05:02;;;;;;;3.10;0.77;;;17.20;57.50;;;;;;4206100;27;20128;-42
2024/01/18 08:07:43;;;;;;;1.83;0.65;;;17.20;57.30;;;;;;4214991;27;20088;-43
2024/01/18 08:10:24;;;;;;;1.27;1.02;;;17.20;57.10;;;;;;4222508;27;20051;-43
2024/01/18 08:13:06;;;;;;;2.20;1.10;;;17.20;57.20;;;;;;4206474;28;20050;-42
2024/01/18 08:15:47;;;;;;;;;;;17.10;57.30;;;;;;4193868;28;20047;-42
2024/01/18 08:18:28;;;;;;;2.20;1.48;;;17.20;57.40;;;;;;4206091;28;19931;-43
2024/01/18 08:21:11;;;;;;;1.85;1.15;;;17.10;57.30;;;;;;4210022;27;20062;-43
2024/01/18 08:23:53;;;;;;;2.88;1.42;;;17.10;57.40;;;;;;4222157;27;20509;-45
2024/01/18 08:26:34;;;;;;;3.47;1.40;;;17.00;57.70;;;;;;4220616;27;20105;-45
2024/01/18 08:29:18;;;;;;;2.15;1.30;;;17.00;57.70;;;;;;4223859;27;20058;-44
2024/01/18 08:31:58;;;;;;;4.15;2.38;;;17.00;57.80;;;;;;4206006;27;20613;-43
2024/01/18 08:34:39;;;;;;;6.15;3.88;;;17.00;58.00;;;;;;4205811;27;20067;-44
2024/01/18 08:37:24;;;;;;;6.20;4.15;;;17.00;57.80;;;;;;4208921;27;20051;-44
2024/01/18 08:40:06;;;;;;;3.92;2.80;;;17.10;58.50;;;;;;4217741;27;20089;-44
2024/01/18 08:42:47;;;;;;;2.58;2.35;;;17.00;57.70;;;;;;4215227;27;20185;-43
2024/01/18 08:45:29;;;;;;;7.47;2.80;;;17.00;57.90;;;;;;4212493;27;20563;-44
2024/01/18 08:48:11;;;;;;;6.75;1.90;;;17.00;57.90;;;;;;4222226;27;20107;-44
2024/01/18 08:50:52;;;;;;;3.88;1.83;;;17.00;58.00;;;;;;4213519;28;20047;-44
2024/01/18 08:53:36;;;;;;;2.75;1.60;;;17.00;58.10;;;;;;4214917;27;20432;-44
2024/01/18 08:56:17;;;;;;;7.82;2.15;;;17.00;58.30;;;;;;4218652;27;20104;-44
2024/01/18 08:59:04;;;;;;;3.22;1.83;;;17.10;58.50;;;;;;4205909;28;20121;-42
2024/01/18 09:01:45;;;;;;;4.25;1.70;;;17.10;58.70;;;;;;4213311;27;20395;-42
2024/01/18 09:04:26;;;;;;;2.38;1.40;;;17.20;58.60;;;;;;4192367;27;20059;-43
2024/01/18 09:07:07;;;;;;;2.83;1.60;;;17.20;58.40;;;;;;4217888;27;20517;-42
2024/01/18 09:09:50;;;;;;;1.42;1.30;;;17.20;58.20;;;;;;4197215;27;20051;-43
2024/01/18 09:12:31;;;;;;;2.15;1.45;;;17.20;58.20;;;;;;4192580;27;20128;-44
2024/01/18 09:15:12;;;;;;;2.53;1.27;;;17.10;58.20;;;;;;4186374;28;20584;-43
2024/01/18 09:17:54;;;;;;;;;;;17.10;58.20;;;;;;4199223;27;20510;-42
2024/01/18 09:20:35;;;;;;;1.17;0.80;;;17.00;58.50;;;;;;4193942;28;20387;-45
2024/01/18 09:23:18;;;;;;;1.20;0.90;;;16.90;58.70;;;;;;4204033;27;20058;-43
2024/01/18 09:26:01;;;;;;;2.80;1.20;;;16.90;58.70;;;;;;4211359;27;20100;-43
2024/01/18 09:28:42;;;;;;;2.75;1.10;;;16.80;58.50;;;;;;4211274;27;20517;-42
2024/01/18 09:31:22;;;;;;;1.75;1.40;;;16.80;58.70;;;;;;4224622;27;20160;-43
2024/01/18 09:34:10;;;;;;;1.40;1.40;;;16.80;58.80;;;;;;4220405;27;20058;-42
2024/01/18 09:36:51;;;;;;;2.28;1.20;;;16.80;58.90;;;;;;4212333;27;20148;-42
2024/01/18 09:39:33;;;;;;;3.83;1.20;;;16.80;58.90;;;;;;4215209;27;20047;-42
2024/01/18 09:42:18;;;;;;;1.77;1.10;;;16.80;58.60;;;;;;4207577;28;20050;-42
2024/01/18 09:45:05;;;;;;;2.97;1.30;;;16.70;58.90;;;;;;4204553;28;20055;-43
2024/01/18 09:47:46;;;;;;;2.95;1.58;;;16.70;59.60;;;;;;4221266;27;20051;-43
2024/01/18 09:50:28;;;;;;;2.20;1.42;;;16.70;59.00;;;;;;4204648;28;20510;-42
2024/01/18 09:53:09;;;;;;;;;;;16.60;59.30;;;;;;4221877;27;20493;-43
2024/01/18 09:55:52;;;;;;;1.38;1.23;;;16.50;59.50;;;;;;4221404;27;19931;-42
2024/01/18 09:58:34;;;;;;;1.33;1.23;;;16.50;59.60;;;;;;4200372;28;20788;-43
2024/01/18 10:01:20;;;;;;;2.60;1.50;;;16.60;59.50;;;;;;4184525;28;20059;-43
2024/01/18 10:04:02;;;;;;;1.30;1.20;;;16.60;59.40;;;;;;4198936;28;21071;-44
2024/01/18 10:06:43;;;;;;;1.42;0.65;;;16.60;59.40;;;;;;4218544;27;20136;-43
2024/01/18 10:09:24;;;;;;;1.75;1.17;;;16.60;59.30;;;;;;4202456;27;20059;-43
2024/01/18 10:12:06;;;;;;;1.25;0.77;;;16.70;59.30;;;;;;4203394;27;20166;-43
2024/01/18 10:14:49;;;;;;;1.25;1.15;;;16.60;59.30;;;;;;4201207;27;21261;-44
2024/01/18 10:17:31;;;;;;;1.77;1.67;;;16.60;59.40;;;;;;4208225;27;20263;-43
2024/01/18 10:20:13;;;;;;;1.40;1.00;;;16.50;59.50;;;;;;4202050;27;20182;-43
2024/01/18 10:22:55;;;;;;;1.17;0.82;;;16.50;59.70;;;;;;4211618;27;20165;-43
2024/01/18 10:25:39;;;;;;;1.90;1.40;;;16.50;59.50;;;;;;4217076;27;20608;-42
2024/01/18 10:28:20;;;;;;;1.35;0.63;;;16.50;59.40;;;;;;4185125;28;20055;-43
2024/01/18 10:31:03;;;;;;;1.00;0.65;;;16.50;59.40;;;;;;4202660;27;20097;-43
2024/01/18 10:33:46;;;;;;;1.23;0.60;;;16.50;59.40;;;;;;4184620;28;20090;-43
2024/01/18 10:36:27;;;;;;;0.70;0.40;;;16.40;59.50;;;;;;4189761;27;20522;-43
2024/01/18 10:39:20;;;;;;;1.45;0.43;;;16.30;59.70;;;;;;4189306;27;20063;-42
2024/01/18 10:42:06;;;;;;;0.77;0.65;;;16.30;60.00;;;;;;4187387;27;20417;-45
2024/01/18 10:44:51;;;;;;;2.15;1.05;;;16.30;60.00;;;;;;4203772;27;20051;-43
2024/01/18 10:47:34;;;;;;;1.33;1.23;;;16.30;59.80;;;;;;4200171;28;20055;-44
2024/01/18 10:50:16;;;;;;;2.25;0.95;;;16.40;59.80;;;;;;4200860;27;20082;-44
2024/01/18 10:52:58;;;;;;;1.52;1.02;;;16.40;59.70;;;;;;4185284;28;20066;-43
2024/01/18 10:55:38;;;;;;;1.90;1.00;;;16.40;59.70;;;;;;4184392;28;20059;-44
2024/01/18 10:58:20;;;;;;;1.08;0.95;;;16.40;59.80;;;;;;4198231;27;20075;-45
2024/01/18 11:01:03;;;;;;;2.22;0.80;;;16.30;59.90;;;;;;4192319;27;20090;-44
2024/01/18 11:03:46;;;;;;;1.25;0.50;;;16.30;60.10;;;;;;4184743;28;20132;-44
2024/01/18 11:06:29;;;;;;;2.03;0.60;;;16.20;60.40;;;;;;4193372;28;20055;-44
2024/01/18 11:09:12;;;;;;;1.17;0.40;;;16.30;60.60;;;;;;4217197;27;20608;-44
2024/01/18 11:11:54;;;;;;;0.80;0.80;;;16.40;60.40;;;;;;4199784;27;20096;-44
2024/01/18 11:14:36;;;;;;;1.00;0.50;;;16.50;60.50;;;;;;4190524;27;20077;-44
2024/01/18 11:17:19;;;;;;;2.95;1.60;;;16.40;60.20;;;;;;4189287;27;20116;-44
2024/01/18 11:20:04;;;;;;;0.47;0.32;;;16.40;60.00;;;;;;4198023;27;20140;-45
2024/01/18 11:22:46;;;;;;;1.00;0.95;;;16.40;60.30;;;;;;4209206;27;20051;-44
2024/01/18 11:25:29;;;;;;;1.95;1.85;;;16.40;60.30;;;;;;4206973;27;20054;-45
2024/01/18 11:28:22;;;;;;;1.67;0.50;;;16.40;60.30;;;;;;4201695;28;20444;-46
2024/01/18 11:31:04;;;;;;;1.90;0.82;;;16.40;60.10;;;;;;4200384;27;20079;-44
2024/01/18 11:33:46;;;;;;;1.02;0.50;;;16.40;60.30;;;;;;4213460;27;20104;-47
2024/01/18 11:36:28;;;;;;;2.88;1.13;;;16.40;60.40;;;;;;4219830;27;20593;-46
2024/01/18 11:39:10;;;;;;;2.58;1.70;;;16.40;60.20;;;;;;4207865;27;20050;-44
2024/01/18 11:41:51;;;;;;;1.00;0.95;;;16.40;60.30;;;;;;4219152;27;20058;-44
2024/01/18 11:44:33;;;;;;;1.30;0.55;;;16.40;60.40;;;;;;4208350;27;20406;-45
2024/01/18 11:47:14;;;;;;;1.58;0.60;;;16.40;60.70;;;;;;4219635;27;20189;-47
2024/01/18 11:49:55;;;;;;;1.60;0.93;;;16.30;61.10;;;;;;4220556;27;20058;-46
2024/01/18 11:52:39;;;;;;;2.92;0.55;;;16.30;61.10;;;;;;4204134;28;20071;-45
2024/01/18 11:55:23;;;;;;;0.68;0.65;;;16.40;61.10;;;;;;4211287;27;20062;-44
2024/01/18 11:58:08;;;;;;;3.20;0.50;;;16.40;61.30;;;;;;4169443;27;20442;-44
2024/01/18 12:01:00;;;;;;;1.08;0.43;;;16.40;62.20;;;;;;4205044;28;20894;-43
2024/01/18 12:03:52;;;;;;;2.30;0.60;;;16.40;61.30;;;;;;4192126;27;20052;-43
2024/01/18 12:06:37;;;;;;;1.05;0.57;;;16.30;61.30;;;;;;4184139;28;20063;-46
2024/01/18 12:09:21;;;;;;;0.80;0.40;;;16.30;61.50;;;;;;4217577;27;20047;-45
2024/01/18 12:12:06;;;;;;;3.75;0.73;;;16.30;61.70;;;;;;4202987;27;20134;-45
2024/01/18 12:14:49;;;;;;;1.27;0.93;;;16.20;61.80;;;;;;4212061;27;20089;-45
2024/01/18 12:17:32;;;;;;;1.50;0.52;;;16.10;62.20;;;;;;4178653;28;20059;-43
2024/01/18 12:20:43;;;;;;;5.10;0.85;;;16.00;62.40;;;;;;4185732;28;20100;-44
2024/01/18 12:23:42;;;;;;;0.85;0.50;;;16.00;62.70;;;;;;4214427;27;20062;-43
2024/01/18 12:26:25;;;;;;;2.75;0.60;;;15.90;63.00;;;;;;4208188;27;20092;-44
2024/01/18 12:29:16;;;;;;;4.43;0.80;;;15.80;63.20;;;;;;4197963;27;20172;-43
2024/01/18 12:32:11;;;;;;;1.73;0.60;;;15.70;64.30;;;;;;4183190;28;20143;-43
2024/01/18 12:35:03;;;;;;;1.48;0.50;;;15.70;63.70;;;;;;4215561;27;20066;-42
2024/01/18 12:37:52;;;;;;;1.33;0.63;;;15.60;64.10;;;;;;4218651;27;20062;-43
2024/01/18 12:40:40;;;;;;;1.67;0.80;;;15.50;64.20;;;;;;4214011;27;20055;-42
2024/01/18 12:43:47;;;;;;;0.50;0.50;;;15.40;64.70;;;;;;4190701;27;20057;-42
2024/01/18 12:46:28;;;;;;;3.22;0.50;;;15.30;66.00;;;;;;4207489;27;20067;-40
2024/01/18 12:49:11;;;;;;;;;;;15.30;66.50;;;;;;4208050;27;21022;-42
2024/01/18 12:51:55;;;;;;;2.83;0.77;;;15.30;66.50;;;;;;4196572;28;19938;-41
2024/01/18 12:54:37;;;;;;;2.70;1.25;;;15.20;66.80;;;;;;4174831;28;20063;-42
2024/01/18 12:57:19;;;;;;;1.02;0.73;;;15.10;66.60;;;;;;4200967;27;20054;-44
2024/01/18 13:00:05;;;;;;;1.85;0.50;;;15.00;66.60;;;;;;4210586;27;20683;-43
2024/01/18 13:02:53;;;;;;;1.58;0.70;;;14.90;66.70;;;;;;4191031;27;21040;-44
2024/01/18 13:05:43;;;;;;;3.92;2.30;;;14.90;67.10;;;;;;4194222;28;20055;-44
2024/01/18 13:08:27;;;;;;;2.70;0.63;;;14.80;67.10;;;;;;4206384;27;20059;-45
2024/01/18 13:11:13;;;;;;;3.10;1.58;;;14.70;67.50;;;;;;4201928;27;20385;-43
2024/01/18 13:13:58;;;;;;;4.07;0.93;;;14.70;67.80;;;;;;4191804;27;20204;-43
2024/01/18 13:16:44;;;;;;;0.80;0.50;;;14.70;68.80;;;;;;4187637;27;20432;-43
2024/01/18 13:19:35;;;;;;;2.08;0.50;;;14.60;68.20;;;;;;4177066;27;20245;-43
2024/01/18 13:22:16;;;;;;;1.05;0.70;;;14.60;68.40;;;;;;4184949;27;20860;-44
2024/01/18 13:25:10;;;;;;;2.50;1.00;;;14.50;68.60;;;;;;4196320;27;20071;-43
2024/01/18 13:27:57;;;;;;;0.80;0.80;;;14.50;68.80;;;;;;4176022;28;20086;-43
2024/01/18 13:30:40;;;;;;;1.75;1.02;;;14.50;69.00;;;;;;4198641;27;20058;-43
2024/01/18 13:33:24;;;;;;;1.25;0.60;;;14.50;69.30;;;;;;4211153;27;20059;-45
2024/01/18 13:36:06;;;;;;;1.95;0.70;;;14.50;69.40;;;;;;4213007;27;20062;-44
2024/01/18 13:38:47;;;;;;;2.13;1.02;;;14.40;69.50;;;;;;4202965;28;20078;-43
2024/01/18 13:41:28;;;;;;;3.30;0.70;;;14.40;69.60;;;;;;4212658;27;20505;-43
2024/01/18 13:44:13;;;;;;;2.25;0.70;;;14.40;69.70;;;;;;4201754;27;20253;-43
2024/01/18 13:46:55;;;;;;;3.40;0.85;;;14.40;69.90;;;;;;4201707;28;20610;-41
2024/01/18 13:49:38;;;;;;;0.82;0.82;;;14.40;70.00;;;;;;4186868;27;20061;-44
2024/01/18 13:52:20;;;;;;;1.35;0.68;;;14.40;70.00;;;;;;4192420;27;20096;-44
2024/01/18 13:55:01;;;;;;;1.48;0.80;;;14.40;70.00;;;;;;4185174;27;20083;-44
2024/01/18 13:57:43;;;;;;;1.27;0.65;;;14.40;70.10;;;;;;4189835;28;20628;-44
2024/01/18 14:00:24;;;;;;;2.33;0.70;;;14.40;70.20;;;;;;4216544;27;20473;-44
2024/01/18 14:03:08;;;;;;;2.07;0.80;;;14.40;70.40;;;;;;4186634;27;20205;-44
2024/01/18 14:05:52;;;;;;;3.85;0.82;;;14.40;70.50;;;;;;4173678;28;20696;-44
2024/01/18 14:08:33;;;;;;;0.80;0.50;;;14.40;70.60;;;;;;4199847;27;20051;-44